sensor_id;sensor_type;location;lat;lon;timestamp;temperature;humidity
58983;DHT22;44771;49.982;8.560;2023-08-01T00:04:27;16.10;99.90
58983;DHT22;44771;49.982;8.560;2023-08-01T00:09:29;16.10;99.90
58983;DHT22;44771;49.982;8.560;2023-08-01T00:14:32;16.10;99.90
58983;DHT22;44771;49.982;8.560;2023-08-01T00:19:33;16.10;99.90
58983;DHT22;44771;49.982;8.560;2023-08-01T00:24:35;16.00;99.90
58983;DHT22;44771;49.982;8.560;2023-08-01T00:29:38;16.10;99.90
58983;DHT22;44771;49.982;8.560;2023-08-01T00:34:40;16.20;99.90
58983;DHT22;44771;49.982;8.560;2023-08-01T00:39:41;16.10;99.90
58983;DHT22;44771;49.982;8.560;2023-08-01T00:44:45;16.10;99.90
58983;DHT22;44771;49.982;8.560;2023-08-01T00:49:47;16.10;99.90
58983;DHT22;44771;49.982;8.560;2023-08-01T00:54:49;16.00;99.90
58983;DHT22;44771;49.982;8.560;2023-08-01T00:59:52;16.00;99.90
58983;DHT22;44771;49.982;8.560;2023-08-01T01:04:55;16.10;99.90
58983;DHT22;44771;49.982;8.560;2023-08-01T01:09:57;16.10;99.90
58983;DHT22;44771;49.982;8.560;2023-08-01T01:15:00;16.10;99.90
58983;DHT22;44771;49.982;8.560;2023-08-01T01:20:02;16.10;99.90
58983;DHT22;44771;49.982;8.560;2023-08-01T01:25:05;16.00;99.90
58983;DHT22;44771;49.982;8.560;2023-08-01T01:30:08;16.10;99.90
58983;DHT22;44771;49.982;8.560;2023-08-01T01:35:10;16.00;99.90
58983;DHT22;44771;49.982;8.560;2023-08-01T01:40:13;16.20;99.90
58983;DHT22;44771;49.982;8.560;2023-08-01T01:45:15;16.10;99.90
58983;DHT22;44771;49.982;8.560;2023-08-01T01:50:16;16.00;99.90
58983;DHT22;44771;49.982;8.560;2023-08-01T02:00:35;16.00;99.90
58983;DHT22;44771;49.982;8.560;2023-08-01T02:05:37;16.00;99.90
58983;DHT22;44771;49.982;8.560;2023-08-01T02:10:38;16.00;99.90
58983;DHT22;44771;49.982;8.560;2023-08-01T02:15:41;16.00;99.90
58983;DHT22;44771;49.982;8.560;2023-08-01T02:20:43;16.10;99.90
58983;DHT22;44771;49.982;8.560;2023-08-01T02:25:45;16.00;99.90
58983;DHT22;44771;49.982;8.560;2023-08-01T02:30:49;16.10;99.90
58983;DHT22;44771;49.982;8.560;2023-08-01T02:35:51;16.10;99.90
58983;DHT22;44771;49.982;8.560;2023-08-01T02:40:53;16.10;99.90
58983;DHT22;44771;49.982;8.560;2023-08-01T02:45:56;16.10;99.90
58983;DHT22;44771;49.982;8.560;2023-08-01T02:50:58;16.10;99.90
58983;DHT22;44771;49.982;8.560;2023-08-01T02:56:05;16.10;99.90
58983;DHT22;44771;49.982;8.560;2023-08-01T03:06:24;16.10;99.90
58983;DHT22;44771;49.982;8.560;2023-08-01T03:11:28;16.10;99.90
58983;DHT22;44771;49.982;8.560;2023-08-01T03:16:33;16.10;99.90
58983;DHT22;44771;49.982;8.560;2023-08-01T03:21:36;16.20;99.90
58983;DHT22;44771;49.982;8.560;2023-08-01T03:26:38;16.10;99.90
58983;DHT22;44771;49.982;8.560;2023-08-01T03:31:40;16.20;99.90
58983;DHT22;44771;49.982;8.560;2023-08-01T03:36:44;16.20;99.90
58983;DHT22;44771;49.982;8.560;2023-08-01T03:41:46;16.20;99.90
58983;DHT22;44771;49.982;8.560;2023-08-01T03:46:47;16.20;99.90
58983;DHT22;44771;49.982;8.560;2023-08-01T03:51:51;16.20;99.90
58983;DHT22;44771;49.982;8.560;2023-08-01T03:56:55;16.20;99.90
58983;DHT22;44771;49.982;8.560;2023-08-01T04:02:01;16.30;99.90
58983;DHT22;44771;49.982;8.560;2023-08-01T04:07:05;16.20;99.90
58983;DHT22;44771;49.982;8.560;2023-08-01T04:12:07;16.20;99.90
58983;DHT22;44771;49.982;8.560;2023-08-01T04:17:09;16.30;99.90
58983;DHT22;44771;49.982;8.560;2023-08-01T04:22:12;16.20;99.90
58983;DHT22;44771;49.982;8.560;2023-08-01T04:27:14;16.30;99.90
58983;DHT22;44771;49.982;8.560;2023-08-01T04:32:17;16.30;99.90
58983;DHT22;44771;49.982;8.560;2023-08-01T04:37:21;16.30;99.90
58983;DHT22;44771;49.982;8.560;2023-08-01T04:42:23;16.20;99.90
58983;DHT22;44771;49.982;8.560;2023-08-01T04:47:24;16.30;99.90
58983;DHT22;44771;49.982;8.560;2023-08-01T04:52:30;16.30;99.90
58983;DHT22;44771;49.982;8.560;2023-08-01T04:57:33;16.30;99.90
58983;DHT22;44771;49.982;8.560;2023-08-01T05:18:37;16.20;99.90
58983;DHT22;44771;49.982;8.560;2023-08-01T05:23:43;16.20;99.90
58983;DHT22;44771;49.982;8.560;2023-08-01T05:28:48;16.20;99.90
58983;DHT22;44771;49.982;8.560;2023-08-01T05:33:51;16.10;99.90
58983;DHT22;44771;49.982;8.560;2023-08-01T05:38:52;16.10;99.90
58983;DHT22;44771;49.982;8.560;2023-08-01T05:43:58;16.20;99.90
58983;DHT22;44771;49.982;8.560;2023-08-01T05:49:03;16.10;99.90
58983;DHT22;44771;49.982;8.560;2023-08-01T05:59:23;15.90;99.90
58983;DHT22;44771;49.982;8.560;2023-08-01T06:09:49;15.80;99.90
58983;DHT22;44771;49.982;8.560;2023-08-01T06:14:52;15.80;99.90
58983;DHT22;44771;49.982;8.560;2023-08-01T06:20:10;15.80;99.90
58983;DHT22;44771;49.982;8.560;2023-08-01T06:25:14;15.70;99.90
58983;DHT22;44771;49.982;8.560;2023-08-01T06:30:17;15.70;99.90
58983;DHT22;44771;49.982;8.560;2023-08-01T06:35:19;15.70;99.90
58983;DHT22;44771;49.982;8.560;2023-08-01T06:40:22;15.60;99.90
58983;DHT22;44771;49.982;8.560;2023-08-01T06:45:26;15.70;99.90
58983;DHT22;44771;49.982;8.560;2023-08-01T07:01:08;15.70;99.90
58983;DHT22;44771;49.982;8.560;2023-08-01T07:06:10;15.80;99.90
58983;DHT22;44771;49.982;8.560;2023-08-01T07:11:12;15.90;99.90
58983;DHT22;44771;49.982;8.560;2023-08-01T07:16:15;16.00;99.90
58983;DHT22;44771;49.982;8.560;2023-08-01T07:21:20;16.20;99.90
58983;DHT22;44771;49.982;8.560;2023-08-01T07:26:22;16.20;99.90
58983;DHT22;44771;49.982;8.560;2023-08-01T07:31:25;16.10;99.90
58983;DHT22;44771;49.982;8.560;2023-08-01T07:47:02;16.00;99.90
58983;DHT22;44771;49.982;8.560;2023-08-01T07:52:07;16.10;99.90
58983;DHT22;44771;49.982;8.560;2023-08-01T08:08:10;16.70;99.90
58983;DHT22;44771;49.982;8.560;2023-08-01T08:13:12;17.30;99.90
58983;DHT22;44771;49.982;8.560;2023-08-01T08:18:14;17.60;99.90
58983;DHT22;44771;49.982;8.560;2023-08-01T08:23:18;18.00;99.90
58983;DHT22;44771;49.982;8.560;2023-08-01T08:28:27;18.30;99.90
58983;DHT22;44771;49.982;8.560;2023-08-01T08:33:29;18.60;99.90
58983;DHT22;44771;49.982;8.560;2023-08-01T08:38:32;19.00;99.90
58983;DHT22;44771;49.982;8.560;2023-08-01T08:43:33;19.20;99.90
58983;DHT22;44771;49.982;8.560;2023-08-01T08:48:35;19.10;99.90
58983;DHT22;44771;49.982;8.560;2023-08-01T08:53:39;19.20;99.90
58983;DHT22;44771;49.982;8.560;2023-08-01T08:58:41;19.10;99.90
58983;DHT22;44771;49.982;8.560;2023-08-01T09:03:44;19.00;99.90
58983;DHT22;44771;49.982;8.560;2023-08-01T09:08:48;18.70;99.90
58983;DHT22;44771;49.982;8.560;2023-08-01T09:13:51;18.90;99.90
58983;DHT22;44771;49.982;8.560;2023-08-01T09:18:53;19.00;99.90
58983;DHT22;44771;49.982;8.560;2023-08-01T09:23:56;18.90;99.90
58983;DHT22;44771;49.982;8.560;2023-08-01T09:28:57;18.60;99.90
58983;DHT22;44771;49.982;8.560;2023-08-01T09:33:59;19.20;99.90
58983;DHT22;44771;49.982;8.560;2023-08-01T09:39:02;19.30;99.90
58983;DHT22;44771;49.982;8.560;2023-08-01T09:44:04;18.90;99.90
58983;DHT22;44771;49.982;8.560;2023-08-01T10:00:02;18.80;99.90
58983;DHT22;44771;49.982;8.560;2023-08-01T10:05:06;19.10;99.90
58983;DHT22;44771;49.982;8.560;2023-08-01T10:10:19;19.10;99.90
58983;DHT22;44771;49.982;8.560;2023-08-01T10:15:23;18.60;99.90
58983;DHT22;44771;49.982;8.560;2023-08-01T10:20:25;18.60;99.90
58983;DHT22;44771;49.982;8.560;2023-08-01T10:25:27;19.40;99.90
58983;DHT22;44771;49.982;8.560;2023-08-01T10:35:55;20.30;99.90
58983;DHT22;44771;49.982;8.560;2023-08-01T10:41:05;20.50;99.90
58983;DHT22;44771;49.982;8.560;2023-08-01T10:46:06;21.00;99.90
58983;DHT22;44771;49.982;8.560;2023-08-01T10:51:10;20.70;99.90
58983;DHT22;44771;49.982;8.560;2023-08-01T10:56:23;20.70;99.90
58983;DHT22;44771;49.982;8.560;2023-08-01T11:01:28;21.10;99.90
58983;DHT22;44771;49.982;8.560;2023-08-01T11:06:31;21.40;99.90
58983;DHT22;44771;49.982;8.560;2023-08-01T11:11:44;21.20;99.90
58983;DHT22;44771;49.982;8.560;2023-08-01T11:16:48;20.60;99.90
58983;DHT22;44771;49.982;8.560;2023-08-01T11:21:52;20.60;99.90
58983;DHT22;44771;49.982;8.560;2023-08-01T11:26:54;21.20;98.30
58983;DHT22;44771;49.982;8.560;2023-08-01T11:31:57;21.70;99.60
58983;DHT22;44771;49.982;8.560;2023-08-01T11:37:01;21.80;96.80
58983;DHT22;44771;49.982;8.560;2023-08-01T11:42:14;22.30;98.70
58983;DHT22;44771;49.982;8.560;2023-08-01T11:47:19;22.30;97.30
58983;DHT22;44771;49.982;8.560;2023-08-01T11:58:04;21.90;96.40
58983;DHT22;44771;49.982;8.560;2023-08-01T12:03:06;21.70;96.40
58983;DHT22;44771;49.982;8.560;2023-08-01T12:08:11;21.40;96.30
58983;DHT22;44771;49.982;8.560;2023-08-01T12:13:19;21.10;96.70
58983;DHT22;44771;49.982;8.560;2023-08-01T12:18:21;21.40;94.70
58983;DHT22;44771;49.982;8.560;2023-08-01T12:23:45;21.90;94.10
58983;DHT22;44771;49.982;8.560;2023-08-01T12:28:51;22.00;93.80
58983;DHT22;44771;49.982;8.560;2023-08-01T12:33:53;22.20;93.10
58983;DHT22;44771;49.982;8.560;2023-08-01T12:38:57;22.80;92.70
58983;DHT22;44771;49.982;8.560;2023-08-01T12:43:58;23.10;90.70
58983;DHT22;44771;49.982;8.560;2023-08-01T12:50:15;22.90;87.40
58983;DHT22;44771;49.982;8.560;2023-08-01T12:54:31;22.60;89.60
58983;DHT22;44771;49.982;8.560;2023-08-01T12:59:32;22.40;88.50
58983;DHT22;44771;49.982;8.560;2023-08-01T13:04:34;22.10;88.70
58983;DHT22;44771;49.982;8.560;2023-08-01T13:09:37;22.30;90.30
58983;DHT22;44771;49.982;8.560;2023-08-01T13:15:49;23.20;86.90
58983;DHT22;44771;49.982;8.560;2023-08-01T13:20:18;22.80;86.90
58983;DHT22;44771;49.982;8.560;2023-08-01T13:25:28;22.70;88.80
58983;DHT22;44771;49.982;8.560;2023-08-01T13:30:30;23.20;87.60
58983;DHT22;44771;49.982;8.560;2023-08-01T13:35:31;22.70;88.80
58983;DHT22;44771;49.982;8.560;2023-08-01T13:40:34;22.90;91.40
58983;DHT22;44771;49.982;8.560;2023-08-01T13:45:36;22.50;90.30
58983;DHT22;44771;49.982;8.560;2023-08-01T13:50:38;22.10;89.20
58983;DHT22;44771;49.982;8.560;2023-08-01T13:55:41;21.60;91.10
58983;DHT22;44771;49.982;8.560;2023-08-01T14:00:42;21.10;92.20
58983;DHT22;44771;49.982;8.560;2023-08-01T14:05:47;20.70;93.80
58983;DHT22;44771;49.982;8.560;2023-08-01T14:10:50;20.80;92.40
58983;DHT22;44771;49.982;8.560;2023-08-01T14:15:52;20.80;93.50
58983;DHT22;44771;49.982;8.560;2023-08-01T14:20:54;20.60;93.30
58983;DHT22;44771;49.982;8.560;2023-08-01T14:25:58;20.00;96.90
58983;DHT22;44771;49.982;8.560;2023-08-01T14:31:00;19.50;99.90
58983;DHT22;44771;49.982;8.560;2023-08-01T14:36:01;19.70;99.90
58983;DHT22;44771;49.982;8.560;2023-08-01T14:41:04;19.60;99.90
58983;DHT22;44771;49.982;8.560;2023-08-01T14:46:18;19.70;99.90
58983;DHT22;44771;49.982;8.560;2023-08-01T14:51:20;19.70;99.90
58983;DHT22;44771;49.982;8.560;2023-08-01T14:56:23;19.60;99.50
58983;DHT22;44771;49.982;8.560;2023-08-01T15:01:25;19.60;99.90
58983;DHT22;44771;49.982;8.560;2023-08-01T15:06:26;19.70;99.90
58983;DHT22;44771;49.982;8.560;2023-08-01T15:11:29;20.30;98.20
58983;DHT22;44771;49.982;8.560;2023-08-01T15:16:31;20.50;95.70
58983;DHT22;44771;49.982;8.560;2023-08-01T15:21:33;20.60;95.80
58983;DHT22;44771;49.982;8.560;2023-08-01T15:26:36;20.40;94.30
58983;DHT22;44771;49.982;8.560;2023-08-01T15:31:37;20.30;94.80
58983;DHT22;44771;49.982;8.560;2023-08-01T15:36:39;20.10;97.40
58983;DHT22;44771;49.982;8.560;2023-08-01T15:41:43;20.00;96.60
58983;DHT22;44771;49.982;8.560;2023-08-01T15:46:44;19.70;98.80
58983;DHT22;44771;49.982;8.560;2023-08-01T15:51:46;19.20;99.90
58983;DHT22;44771;49.982;8.560;2023-08-01T15:56:49;19.00;99.90
58983;DHT22;44771;49.982;8.560;2023-08-01T16:01:51;18.80;99.90
58983;DHT22;44771;49.982;8.560;2023-08-01T16:06:52;18.90;99.90
58983;DHT22;44771;49.982;8.560;2023-08-01T16:11:55;18.90;99.90
58983;DHT22;44771;49.982;8.560;2023-08-01T16:16:57;19.20;99.90
58983;DHT22;44771;49.982;8.560;2023-08-01T16:21:58;19.40;99.90
58983;DHT22;44771;49.982;8.560;2023-08-01T16:27:01;19.70;99.90
58983;DHT22;44771;49.982;8.560;2023-08-01T16:32:03;19.80;99.60
58983;DHT22;44771;49.982;8.560;2023-08-01T16:37:05;19.70;99.90
58983;DHT22;44771;49.982;8.560;2023-08-01T16:42:08;19.40;99.90
58983;DHT22;44771;49.982;8.560;2023-08-01T16:47:10;19.30;99.90
58983;DHT22;44771;49.982;8.560;2023-08-01T16:52:11;19.10;99.90
58983;DHT22;44771;49.982;8.560;2023-08-01T16:57:14;19.10;99.90
58983;DHT22;44771;49.982;8.560;2023-08-01T17:02:16;19.10;99.90
58983;DHT22;44771;49.982;8.560;2023-08-01T17:07:18;19.00;99.90
58983;DHT22;44771;49.982;8.560;2023-08-01T17:12:21;19.00;99.90
58983;DHT22;44771;49.982;8.560;2023-08-01T17:17:22;18.90;99.90
58983;DHT22;44771;49.982;8.560;2023-08-01T17:22:24;19.00;99.90
58983;DHT22;44771;49.982;8.560;2023-08-01T17:27:27;19.10;99.90
58983;DHT22;44771;49.982;8.560;2023-08-01T17:32:29;19.20;98.80
58983;DHT22;44771;49.982;8.560;2023-08-01T17:37:31;18.90;98.30
58983;DHT22;44771;49.982;8.560;2023-08-01T17:42:34;18.80;99.60
58983;DHT22;44771;49.982;8.560;2023-08-01T17:47:35;18.60;99.20
58983;DHT22;44771;49.982;8.560;2023-08-01T17:52:37;18.50;98.90
58983;DHT22;44771;49.982;8.560;2023-08-01T17:57:40;18.40;99.10
58983;DHT22;44771;49.982;8.560;2023-08-01T18:02:42;18.40;99.50
58983;DHT22;44771;49.982;8.560;2023-08-01T18:07:44;18.40;99.00
58983;DHT22;44771;49.982;8.560;2023-08-01T18:12:47;18.30;99.20
58983;DHT22;44771;49.982;8.560;2023-08-01T18:17:49;18.30;99.20
58983;DHT22;44771;49.982;8.560;2023-08-01T18:22:50;18.30;98.70
58983;DHT22;44771;49.982;8.560;2023-08-01T18:27:53;18.30;98.70
58983;DHT22;44771;49.982;8.560;2023-08-01T18:32:55;18.20;98.70
58983;DHT22;44771;49.982;8.560;2023-08-01T18:37:57;18.00;99.60
58983;DHT22;44771;49.982;8.560;2023-08-01T18:43:00;17.90;99.90
58983;DHT22;44771;49.982;8.560;2023-08-01T18:48:02;17.80;99.90
58983;DHT22;44771;49.982;8.560;2023-08-01T18:53:03;17.70;99.90
58983;DHT22;44771;49.982;8.560;2023-08-01T18:58:06;17.60;99.90
58983;DHT22;44771;49.982;8.560;2023-08-01T19:03:08;17.40;99.90
58983;DHT22;44771;49.982;8.560;2023-08-01T19:08:10;17.30;99.90
58983;DHT22;44771;49.982;8.560;2023-08-01T19:13:14;17.20;99.90
58983;DHT22;44771;49.982;8.560;2023-08-01T19:18:19;17.10;99.90
58983;DHT22;44771;49.982;8.560;2023-08-01T19:23:21;17.10;99.90
58983;DHT22;44771;49.982;8.560;2023-08-01T19:28:26;17.20;99.90
58983;DHT22;44771;49.982;8.560;2023-08-01T19:33:27;17.20;99.90
58983;DHT22;44771;49.982;8.560;2023-08-01T19:38:29;17.20;99.90
58983;DHT22;44771;49.982;8.560;2023-08-01T19:43:32;17.10;99.90
58983;DHT22;44771;49.982;8.560;2023-08-01T19:48:34;17.10;99.90
58983;DHT22;44771;49.982;8.560;2023-08-01T19:53:38;17.10;99.90
58983;DHT22;44771;49.982;8.560;2023-08-01T19:58:47;17.00;99.90
58983;DHT22;44771;49.982;8.560;2023-08-01T20:03:49;16.90;99.90
58983;DHT22;44771;49.982;8.560;2023-08-01T20:08:51;16.80;99.90
58983;DHT22;44771;49.982;8.560;2023-08-01T20:13:54;16.60;99.90
58983;DHT22;44771;49.982;8.560;2023-08-01T20:18:55;16.60;99.90
58983;DHT22;44771;49.982;8.560;2023-08-01T20:23:57;16.50;99.90
58983;DHT22;44771;49.982;8.560;2023-08-01T20:29:00;16.40;99.90
58983;DHT22;44771;49.982;8.560;2023-08-01T20:34:02;16.30;99.90
58983;DHT22;44771;49.982;8.560;2023-08-01T20:39:03;16.30;99.90
58983;DHT22;44771;49.982;8.560;2023-08-01T20:44:06;16.20;99.90
58983;DHT22;44771;49.982;8.560;2023-08-01T20:49:08;16.30;99.90
58983;DHT22;44771;49.982;8.560;2023-08-01T20:54:10;16.30;99.90
58983;DHT22;44771;49.982;8.560;2023-08-01T20:59:13;16.30;99.90
58983;DHT22;44771;49.982;8.560;2023-08-01T21:04:14;16.40;99.90
58983;DHT22;44771;49.982;8.560;2023-08-01T21:09:16;16.30;99.90
58983;DHT22;44771;49.982;8.560;2023-08-01T21:14:19;16.30;99.90
58983;DHT22;44771;49.982;8.560;2023-08-01T21:19:21;16.30;99.90
58983;DHT22;44771;49.982;8.560;2023-08-01T21:24:22;16.30;99.90
58983;DHT22;44771;49.982;8.560;2023-08-01T21:29:25;16.30;99.90
58983;DHT22;44771;49.982;8.560;2023-08-01T21:34:27;16.30;99.90
58983;DHT22;44771;49.982;8.560;2023-08-01T21:39:28;16.30;99.90
58983;DHT22;44771;49.982;8.560;2023-08-01T21:44:31;16.30;99.90
58983;DHT22;44771;49.982;8.560;2023-08-01T21:49:33;16.30;99.90
58983;DHT22;44771;49.982;8.560;2023-08-01T22:00:04;16.10;99.90
58983;DHT22;44771;49.982;8.560;2023-08-01T22:05:06;16.00;99.90
58983;DHT22;44771;49.982;8.560;2023-08-01T22:10:08;16.00;99.90
58983;DHT22;44771;49.982;8.560;2023-08-01T22:15:11;15.90;99.90
58983;DHT22;44771;49.982;8.560;2023-08-01T22:20:13;15.90;99.90
58983;DHT22;44771;49.982;8.560;2023-08-01T22:25:25;15.90;99.90
58983;DHT22;44771;49.982;8.560;2023-08-01T22:41:24;15.70;99.90
58983;DHT22;44771;49.982;8.560;2023-08-01T22:46:26;15.70;99.90
58983;DHT22;44771;49.982;8.560;2023-08-01T22:51:28;15.80;99.90
58983;DHT22;44771;49.982;8.560;2023-08-01T22:56:32;15.80;99.90
58983;DHT22;44771;49.982;8.560;2023-08-01T23:01:33;15.80;99.90
58983;DHT22;44771;49.982;8.560;2023-08-01T23:06:37;15.80;99.90
58983;DHT22;44771;49.982;8.560;2023-08-01T23:11:50;15.80;99.90
58983;DHT22;44771;49.982;8.560;2023-08-01T23:16:57;15.80;99.90
58983;DHT22;44771;49.982;8.560;2023-08-01T23:21:59;15.80;99.90
58983;DHT22;44771;49.982;8.560;2023-08-01T23:27:02;15.70;99.90
58983;DHT22;44771;49.982;8.560;2023-08-01T23:32:04;15.80;99.90
58983;DHT22;44771;49.982;8.560;2023-08-01T23:37:06;15.80;99.90
58983;DHT22;44771;49.982;8.560;2023-08-01T23:42:13;15.90;99.90
58983;DHT22;44771;49.982;8.560;2023-08-01T23:47:15;15.90;99.90
58983;DHT22;44771;49.982;8.560;2023-08-01T23:52:17;15.90;99.90
58983;DHT22;44771;49.982;8.560;2023-08-01T23:57:21;15.90;99.90
